createdAt,value
2022-10-28T00:01:15.149Z,2.10
2022-10-28T00:03:44.938Z,1.92
2022-10-28T00:06:15.137Z,2.35
2022-10-28T00:08:43.767Z,1.92
2022-10-28T00:11:14.000Z,2.42
2022-10-28T00:13:43.010Z,2.05
2022-10-28T00:16:14.479Z,2.20
2022-10-28T00:18:42.883Z,2.35
2022-10-28T00:21:13.331Z,2.30
2022-10-28T00:23:41.652Z,2.70
2022-10-28T00:26:11.950Z,1.95
2022-10-28T00:28:43.714Z,2.67
2022-10-28T00:31:14.731Z,2.25
2022-10-28T00:33:43.254Z,2.38
2022-10-28T00:36:13.648Z,2.17
2022-10-28T00:38:42.785Z,2.03
2022-10-28T00:41:11.756Z,2.28
2022-10-28T00:43:42.091Z,1.92
2022-10-28T00:46:19.392Z,2.05
2022-10-28T00:48:51.874Z,2.13
2022-10-28T00:51:23.411Z,1.90
2022-10-28T00:53:53.368Z,2.10
2022-10-28T00:56:22.350Z,2.20
2022-10-28T00:58:51.226Z,1.95
2022-10-28T01:01:20.604Z,2.55
2022-10-28T01:03:48.943Z,1.77
2022-10-28T01:06:17.454Z,2.17
2022-10-28T01:08:45.368Z,2.50
2022-10-28T01:11:41.421Z,1.70
2022-10-28T01:14:19.124Z,2.05
2022-10-28T01:17:01.793Z,1.90
2022-10-28T01:20:00.463Z,1.80
2022-10-28T01:22:34.974Z,2.03
2022-10-28T01:25:29.767Z,1.95
2022-10-28T01:28:21.791Z,1.88
2022-10-28T01:31:09.276Z,2.05
2022-10-28T01:33:42.491Z,1.80
2022-10-28T01:36:16.498Z,2.20
2022-10-28T01:38:52.345Z,2.30
2022-10-28T01:41:29.836Z,1.70
2022-10-28T01:44:06.575Z,1.70
2022-10-28T01:46:40.863Z,2.08
2022-10-28T01:49:15.186Z,1.70
2022-10-28T01:51:47.701Z,1.70
2022-10-28T01:54:20.157Z,1.70
2022-10-28T01:56:49.781Z,1.80
2022-10-28T01:59:21.053Z,1.60
2022-10-28T02:01:50.677Z,1.67
2022-10-28T02:04:18.853Z,1.92
2022-10-28T02:06:51.353Z,2.10
2022-10-28T02:09:33.901Z,2.10
2022-10-28T02:12:20.886Z,2.25
2022-10-28T02:15:15.658Z,1.85
2022-10-28T02:17:56.280Z,1.83
2022-10-28T02:20:34.534Z,2.10
2022-10-28T02:23:17.658Z,2.08
2022-10-28T02:25:52.382Z,1.70
2022-10-28T02:28:27.484Z,1.65
2022-10-28T02:31:00.265Z,1.90
2022-10-28T02:33:32.709Z,2.10
2022-10-28T02:36:04.260Z,1.50
2022-10-28T02:38:35.727Z,1.60
2022-10-28T02:41:08.076Z,1.88
2022-10-28T02:43:39.140Z,1.90
2022-10-28T02:46:09.238Z,1.77
2022-10-28T02:48:43.440Z,1.58
2022-10-28T02:51:15.747Z,1.65
2022-10-28T02:53:54.804Z,1.80
2022-10-28T02:56:23.331Z,2.00
2022-10-28T02:58:51.641Z,1.55
2022-10-28T03:01:19.730Z,1.60
2022-10-28T03:03:49.160Z,1.38
2022-10-28T03:06:17.132Z,1.60
2022-10-28T03:08:45.189Z,1.60
2022-10-28T03:11:13.130Z,1.58
2022-10-28T03:13:41.114Z,1.85
2022-10-28T03:16:09.217Z,1.73
2022-10-28T03:18:37.149Z,1.80
2022-10-28T03:21:06.555Z,1.73
2022-10-28T03:23:34.573Z,2.00
2022-10-28T03:26:02.500Z,2.05
2022-10-28T03:28:30.413Z,1.67
2022-10-28T03:30:58.380Z,1.63
2022-10-28T03:33:26.546Z,1.70
2022-10-28T03:35:54.494Z,1.83
2022-10-28T03:38:23.833Z,1.65
2022-10-28T03:40:52.152Z,1.73
2022-10-28T03:43:20.078Z,1.77
2022-10-28T03:45:49.345Z,1.40
2022-10-28T03:48:17.460Z,1.70
2022-10-28T03:50:45.533Z,1.67
2022-10-28T03:53:13.554Z,1.55
2022-10-28T03:55:43.005Z,1.65
2022-10-28T03:58:10.945Z,1.25
2022-10-28T04:00:38.867Z,1.52
2022-10-28T04:03:06.813Z,1.75
2022-10-28T04:05:34.782Z,1.50
2022-10-28T04:08:02.715Z,1.52
2022-10-28T04:10:30.751Z,1.88
2022-10-28T04:13:02.494Z,1.42
2022-10-28T04:15:30.653Z,1.38
2022-10-28T04:17:58.628Z,1.60
2022-10-28T04:20:27.656Z,1.60
2022-10-28T04:22:57.183Z,1.40
2022-10-28T04:25:26.613Z,1.20
2022-10-28T04:27:54.993Z,1.50
2022-10-28T04:30:25.263Z,1.73
2022-10-28T04:32:53.284Z,1.30
2022-10-28T04:35:21.242Z,1.83
2022-10-28T04:37:49.215Z,1.40
2022-10-28T04:40:17.565Z,1.38
2022-10-28T04:42:45.495Z,1.70
2022-10-28T04:45:13.607Z,1.40
2022-10-28T04:47:42.915Z,1.60
2022-10-28T04:50:11.034Z,1.80
2022-10-28T04:52:39.049Z,1.48
2022-10-28T04:55:07.728Z,1.77
2022-10-28T04:57:35.749Z,1.75
2022-10-28T05:00:03.987Z,1.63
2022-10-28T05:02:32.047Z,1.98
2022-10-28T05:05:03.479Z,2.00
2022-10-28T05:07:31.713Z,1.70
2022-10-28T05:09:59.714Z,1.80
2022-10-28T05:12:27.700Z,1.77
2022-10-28T05:14:55.666Z,2.38
2022-10-28T05:17:23.599Z,1.80
2022-10-28T05:19:51.551Z,1.40
2022-10-28T05:22:20.855Z,2.42
2022-10-28T05:24:48.857Z,2.17
2022-10-28T05:27:17.465Z,2.00
2022-10-28T05:29:45.408Z,1.83
2022-10-28T05:32:13.409Z,2.10
2022-10-28T05:34:41.378Z,1.90
2022-10-28T05:37:09.313Z,1.63
2022-10-28T05:39:38.585Z,2.17
2022-10-28T05:42:06.694Z,1.83
2022-10-28T05:44:34.671Z,1.95
2022-10-28T05:47:02.620Z,2.03
2022-10-28T05:49:30.521Z,2.63
2022-10-28T05:51:58.474Z,1.42
2022-10-28T05:54:26.416Z,2.60
2022-10-28T05:56:55.850Z,2.30
2022-10-28T05:59:23.800Z,1.95
2022-10-28T06:01:51.800Z,2.30
2022-10-28T06:04:19.805Z,2.17
2022-10-28T06:06:47.763Z,1.73
2022-10-28T06:09:15.704Z,2.17
2022-10-28T06:11:42.093Z,2.08
2022-10-28T06:14:11.429Z,1.83
2022-10-28T06:16:39.350Z,1.88
2022-10-28T06:19:07.280Z,1.90
2022-10-28T06:21:35.576Z,1.90
2022-10-28T06:24:05.115Z,1.77
2022-10-28T06:26:33.932Z,1.92
2022-10-28T06:29:01.999Z,2.00
2022-10-28T06:31:31.880Z,1.58
2022-10-28T06:34:00.039Z,1.90
2022-10-28T06:36:28.099Z,1.80
2022-10-28T06:38:56.129Z,1.60
2022-10-28T06:41:24.124Z,1.73
2022-10-28T06:43:52.166Z,1.70
2022-10-28T06:46:20.301Z,1.70
2022-10-28T06:48:51.135Z,1.77
2022-10-28T06:51:19.154Z,1.63
2022-10-28T06:53:49.920Z,1.50
2022-10-28T06:56:18.045Z,1.60
2022-10-28T06:58:46.081Z,1.85
2022-10-28T07:01:14.040Z,2.00
2022-10-28T07:03:42.759Z,1.73
2022-10-28T07:06:12.131Z,1.85
2022-10-28T07:08:40.108Z,1.63
2022-10-28T07:11:08.199Z,1.75
2022-10-28T07:13:36.277Z,2.10
2022-10-28T07:16:05.203Z,1.75
2022-10-28T07:18:33.209Z,1.77
2022-10-28T07:21:01.950Z,2.13
2022-10-28T07:23:32.953Z,1.77
2022-10-28T07:26:01.066Z,1.83
2022-10-28T07:28:29.348Z,1.85
2022-10-28T07:31:02.098Z,1.90
2022-10-28T07:33:30.179Z,2.00
2022-10-28T07:35:58.189Z,2.10
2022-10-28T07:38:26.386Z,2.50
2022-10-28T07:40:55.772Z,2.22
2022-10-28T07:43:23.859Z,2.42
2022-10-28T07:45:57.355Z,2.05
2022-10-28T07:48:25.680Z,1.85
2022-10-28T07:50:53.589Z,2.40
2022-10-28T07:53:23.647Z,2.42
2022-10-28T07:55:59.929Z,2.17
2022-10-28T07:58:28.215Z,2.13
2022-10-28T08:00:56.229Z,2.08
2022-10-28T08:03:31.335Z,1.90
2022-10-28T08:06:03.162Z,1.98
2022-10-28T08:08:31.307Z,2.22
2022-10-28T08:11:00.617Z,1.88
2022-10-28T08:13:28.576Z,2.10
2022-10-28T08:15:56.888Z,2.10
2022-10-28T08:18:24.860Z,2.22
2022-10-28T08:20:52.827Z,2.40
2022-10-28T08:23:20.776Z,2.35
2022-10-28T08:25:49.935Z,2.13
2022-10-28T08:28:19.734Z,2.25
2022-10-28T08:30:57.193Z,2.10
2022-10-28T08:33:35.996Z,2.00
2022-10-28T08:36:03.888Z,1.90
2022-10-28T08:38:31.786Z,2.28
2022-10-28T08:41:09.239Z,1.77
2022-10-28T08:43:57.087Z,1.90
2022-10-28T08:46:39.923Z,1.50
2022-10-28T08:49:13.216Z,1.50
2022-10-28T08:51:46.713Z,1.77
2022-10-28T08:54:18.897Z,2.00
2022-10-28T08:56:48.601Z,1.92
2022-10-28T08:59:22.894Z,1.80
2022-10-28T09:04:29.903Z,1.53
2022-10-28T09:06:57.927Z,1.75
2022-10-28T09:09:25.955Z,1.50
2022-10-28T09:12:10.458Z,1.95
2022-10-28T09:14:55.625Z,1.63
2022-10-28T09:17:33.196Z,1.70
2022-10-28T09:20:06.972Z,1.90
2022-10-28T09:22:43.335Z,1.90
2022-10-28T09:25:23.514Z,1.80
2022-10-28T09:28:04.369Z,1.92
2022-10-28T09:30:40.982Z,1.75
2022-10-28T09:33:22.522Z,2.10
2022-10-28T09:35:51.988Z,2.10
2022-10-28T09:38:28.112Z,2.10
2022-10-28T09:41:02.931Z,1.80
2022-10-28T09:43:33.935Z,1.65
2022-10-28T09:46:09.082Z,1.77
2022-10-28T09:48:40.354Z,1.70
2022-10-28T09:51:17.015Z,1.75
2022-10-28T09:53:49.544Z,1.80
2022-10-28T09:56:17.505Z,1.90
2022-10-28T09:58:47.663Z,1.88
2022-10-28T10:01:18.978Z,2.17
2022-10-28T10:03:49.757Z,1.70
2022-10-28T10:06:21.090Z,1.38
2022-10-28T10:08:49.288Z,1.35
2022-10-28T10:11:28.614Z,1.27
2022-10-28T10:13:58.930Z,1.17
2022-10-28T10:16:39.909Z,1.50
2022-10-28T10:19:09.770Z,1.38
2022-10-28T10:21:46.292Z,1.65
2022-10-28T10:24:30.650Z,1.38
2022-10-28T10:27:01.362Z,1.45
2022-10-28T10:29:30.427Z,1.30
2022-10-28T10:32:17.740Z,1.30
2022-10-28T10:34:50.867Z,1.20
2022-10-28T10:37:21.706Z,1.52
2022-10-28T10:40:03.139Z,1.40
2022-10-28T10:42:31.241Z,1.50
2022-10-28T10:45:02.615Z,1.40
2022-10-28T10:47:31.991Z,1.55
2022-10-28T10:50:22.898Z,1.00
2022-10-28T10:52:53.708Z,1.23
2022-10-28T10:55:28.894Z,1.50
2022-10-28T10:57:57.541Z,1.20
2022-10-28T11:00:32.255Z,1.35
2022-10-28T11:03:02.425Z,1.30
2022-10-28T11:05:35.860Z,1.30
2022-10-28T11:08:07.658Z,1.15
2022-10-28T11:10:36.300Z,1.10
2022-10-28T11:13:24.766Z,1.02
2022-10-28T11:16:01.555Z,1.60
2022-10-28T11:18:41.611Z,1.10
2022-10-28T11:21:28.296Z,1.27
2022-10-28T11:24:08.899Z,1.65
2022-10-28T11:26:42.226Z,1.17
2022-10-28T11:29:12.594Z,1.10
2022-10-28T11:32:25.145Z,1.20
2022-10-28T11:35:09.496Z,1.33
2022-10-28T11:37:53.352Z,1.30
2022-10-28T11:40:32.270Z,0.95
2022-10-28T11:43:24.046Z,1.23
2022-10-28T11:45:59.261Z,1.20
2022-10-28T11:48:50.715Z,1.30
2022-10-28T11:51:32.166Z,1.38
2022-10-28T11:54:21.615Z,1.25
2022-10-28T11:56:53.123Z,1.27
2022-10-28T12:00:03.543Z,1.17
2022-10-28T12:02:53.213Z,1.30
2022-10-28T12:05:26.589Z,1.25
2022-10-28T12:08:05.962Z,1.30
2022-10-28T12:10:42.552Z,1.45
2022-10-28T12:13:20.943Z,1.35
2022-10-28T12:15:56.415Z,1.50
2022-10-28T12:18:30.610Z,1.33
2022-10-28T12:21:04.128Z,1.38
2022-10-28T12:23:36.609Z,1.70
2022-10-28T12:26:09.320Z,1.63
2022-10-28T12:28:43.080Z,1.47
2022-10-28T12:31:19.877Z,1.58
2022-10-28T12:33:50.530Z,1.55
2022-10-28T12:36:25.984Z,1.60
2022-10-28T12:39:00.700Z,1.65
2022-10-28T12:41:44.051Z,1.45
2022-10-28T12:44:15.578Z,1.70
2022-10-28T12:46:51.119Z,1.50
2022-10-28T12:49:26.240Z,1.30
2022-10-28T12:51:54.582Z,1.38
2022-10-28T12:54:29.674Z,1.30
2022-10-28T12:57:04.518Z,1.85
2022-10-28T12:59:36.338Z,1.10
2022-10-28T13:02:08.642Z,1.50
2022-10-28T13:04:38.543Z,1.63
2022-10-28T13:07:33.169Z,1.58
2022-10-28T13:10:18.214Z,1.40
2022-10-28T13:13:12.465Z,1.23
2022-10-28T13:16:16.077Z,1.40
2022-10-28T13:19:19.396Z,1.40
2022-10-28T13:22:19.431Z,1.65
2022-10-28T13:24:56.792Z,1.80
2022-10-28T13:27:26.992Z,1.40
2022-10-28T13:29:58.332Z,1.33
2022-10-28T13:32:35.643Z,1.20
2022-10-28T13:35:14.466Z,1.55
2022-10-28T13:37:46.801Z,1.60
2022-10-28T13:40:24.096Z,1.60
2022-10-28T13:42:53.779Z,1.73
2022-10-28T13:45:48.842Z,1.60
2022-10-28T13:48:47.930Z,1.20
2022-10-28T13:51:34.339Z,1.80
2022-10-28T13:54:02.508Z,1.50
2022-10-28T13:56:39.093Z,1.63
2022-10-28T13:59:33.476Z,1.60
2022-10-28T14:02:33.141Z,1.52
2022-10-28T14:04:59.093Z,1.73
2022-10-28T14:07:30.253Z,1.67
2022-10-28T14:10:17.596Z,2.00
2022-10-28T14:12:51.282Z,1.48
2022-10-28T14:15:29.658Z,1.33
2022-10-28T14:18:10.276Z,1.73
2022-10-28T14:20:58.803Z,1.80
2022-10-28T14:24:06.289Z,1.43
2022-10-28T14:27:13.282Z,1.60
2022-10-28T14:29:44.903Z,1.75
2022-10-28T14:32:43.183Z,1.83
2022-10-28T14:35:30.116Z,1.40
2022-10-28T14:38:48.042Z,1.63
2022-10-28T14:41:27.460Z,1.70
2022-10-28T14:44:06.755Z,1.80
2022-10-28T14:46:47.106Z,1.77
2022-10-28T14:49:21.453Z,1.90
2022-10-28T14:51:50.785Z,1.70
2022-10-28T14:54:30.926Z,1.40
2022-10-28T14:56:58.845Z,1.55
2022-10-28T14:59:30.672Z,1.52
2022-10-28T15:02:03.258Z,1.85
2022-10-28T15:04:32.875Z,1.85
2022-10-28T15:07:01.018Z,1.77
2022-10-28T15:09:32.113Z,1.70
2022-10-28T15:12:02.541Z,2.20
2022-10-28T15:14:33.915Z,1.95
2022-10-28T15:17:10.775Z,1.60
2022-10-28T15:19:40.525Z,1.63
2022-10-28T15:22:15.020Z,2.00
2022-10-28T15:24:46.240Z,2.20
2022-10-28T15:27:16.237Z,2.60
2022-10-28T15:29:44.543Z,2.20
2022-10-28T15:32:25.694Z,2.13
2022-10-28T15:34:55.091Z,4.03
2022-10-28T15:37:25.170Z,2.38
2022-10-28T15:40:12.360Z,2.42
2022-10-28T15:42:43.216Z,1.80
2022-10-28T15:45:21.894Z,2.58
2022-10-28T15:47:50.190Z,1.98
2022-10-28T15:50:32.178Z,2.00
2022-10-28T15:53:32.010Z,2.55
2022-10-28T15:56:18.251Z,2.67
2022-10-28T15:58:47.341Z,2.00
2022-10-28T16:01:39.349Z,2.28
2022-10-28T16:04:28.304Z,2.28
2022-10-28T16:06:58.974Z,1.90
2022-10-28T16:09:32.124Z,2.38
2022-10-28T16:12:03.480Z,2.17
2022-10-28T16:14:34.957Z,2.15
2022-10-28T16:17:08.284Z,2.40
2022-10-28T16:19:39.278Z,2.13
2022-10-28T16:22:12.825Z,2.42
2022-10-28T16:24:40.831Z,2.70
2022-10-28T16:27:19.727Z,2.40
2022-10-28T16:29:47.983Z,2.63
2022-10-28T16:32:17.161Z,2.47
2022-10-28T16:34:45.197Z,2.45
2022-10-28T16:37:22.149Z,2.47
2022-10-28T16:39:52.553Z,1.95
2022-10-28T16:42:21.747Z,2.38
2022-10-28T16:44:49.954Z,2.30
2022-10-28T16:47:20.503Z,2.67
2022-10-28T16:49:54.013Z,2.08
2022-10-28T16:52:29.650Z,2.90
2022-10-28T16:54:58.717Z,2.28
2022-10-28T16:57:27.528Z,2.80
2022-10-28T16:59:55.819Z,2.30
2022-10-28T17:02:26.986Z,2.08
2022-10-28T17:04:55.400Z,2.28
2022-10-28T17:07:23.437Z,2.30
2022-10-28T17:09:52.866Z,2.53
2022-10-28T17:12:23.054Z,2.17
2022-10-28T17:14:51.401Z,1.90
2022-10-28T17:17:19.751Z,2.28
2022-10-28T17:19:47.760Z,2.58
2022-10-28T17:22:15.774Z,2.70
2022-10-28T17:24:43.737Z,1.98
2022-10-28T17:27:13.799Z,2.88
2022-10-28T17:29:41.784Z,2.90
2022-10-28T17:32:09.791Z,2.50
2022-10-28T17:34:38.007Z,2.00
2022-10-28T17:37:07.513Z,2.45
2022-10-28T17:39:35.705Z,2.60
2022-10-28T17:42:03.786Z,2.38
2022-10-28T17:44:33.053Z,1.90
2022-10-28T17:47:01.056Z,2.15
2022-10-28T17:49:29.307Z,2.50
2022-10-28T17:51:57.214Z,2.53
2022-10-28T17:54:25.287Z,2.50
2022-10-28T17:56:53.302Z,2.80
2022-10-28T17:59:21.259Z,2.30
2022-10-28T18:01:50.638Z,2.65
2022-10-28T18:04:19.896Z,4.53
2022-10-28T18:06:48.152Z,3.60
2022-10-28T18:09:16.078Z,3.00
2022-10-28T18:11:44.093Z,2.35
2022-10-28T18:14:12.019Z,2.85
2022-10-28T18:16:39.973Z,2.67
2022-10-28T18:19:09.341Z,2.75
2022-10-28T18:21:37.343Z,2.40
2022-10-28T18:24:05.675Z,2.30
2022-10-28T18:26:35.074Z,2.20
2022-10-28T18:29:04.004Z,2.42
2022-10-28T18:31:33.307Z,2.20
2022-10-28T18:34:01.897Z,2.58
2022-10-28T18:36:34.492Z,3.25
2022-10-28T18:39:03.246Z,2.40
2022-10-28T18:41:32.313Z,3.05
2022-10-28T18:44:12.460Z,2.85
2022-10-28T18:46:40.754Z,3.20
2022-10-28T18:49:09.139Z,3.13
2022-10-28T18:51:38.765Z,2.75
2022-10-28T18:54:06.824Z,3.10
2022-10-28T18:56:35.111Z,3.78
2022-10-28T18:59:04.579Z,3.30
2022-10-28T19:01:33.016Z,3.20
2022-10-28T19:04:02.399Z,3.10
2022-10-28T19:06:33.929Z,2.75
2022-10-28T19:09:05.206Z,3.20
2022-10-28T19:11:45.028Z,2.83
2022-10-28T19:14:13.021Z,2.65
2022-10-28T19:16:40.971Z,3.17
2022-10-28T19:19:08.960Z,2.90
2022-10-28T19:21:36.924Z,2.83
2022-10-28T19:24:06.872Z,2.35
2022-10-28T19:26:34.930Z,2.65
2022-10-28T19:29:05.152Z,2.83
2022-10-28T19:31:36.836Z,2.97
2022-10-28T19:34:05.614Z,2.80
2022-10-28T19:36:33.852Z,2.58
2022-10-28T19:39:02.006Z,2.78
2022-10-28T19:41:34.442Z,2.70
2022-10-28T19:44:03.569Z,2.50
2022-10-28T19:46:33.626Z,2.45
2022-10-28T19:49:04.477Z,2.20
2022-10-28T19:51:34.348Z,2.63
2022-10-28T19:54:04.914Z,2.55
2022-10-28T19:56:35.956Z,2.60
2022-10-28T19:59:05.445Z,2.85
2022-10-28T20:01:35.522Z,4.75
2022-10-28T20:04:03.727Z,2.90
2022-10-28T20:06:33.606Z,2.85
2022-10-28T20:09:01.809Z,4.47
2022-10-28T20:11:32.459Z,4.38
2022-10-28T20:14:14.418Z,4.05
2022-10-28T20:16:46.079Z,3.72
2022-10-28T20:19:14.439Z,3.72
2022-10-28T20:21:47.055Z,3.00
2022-10-28T20:24:15.604Z,3.22
2022-10-28T20:26:43.785Z,2.70
2022-10-28T20:29:16.456Z,3.25
2022-10-28T20:31:44.733Z,3.20
2022-10-28T20:34:12.801Z,3.20
2022-10-28T20:36:44.056Z,3.13
2022-10-28T20:39:15.255Z,3.28
2022-10-28T20:41:45.199Z,3.40
2022-10-28T20:44:14.668Z,3.47
2022-10-28T20:46:44.996Z,3.05
2022-10-28T20:49:13.253Z,2.58
2022-10-28T20:51:41.614Z,2.40
2022-10-28T20:54:09.743Z,2.67
2022-10-28T20:56:40.269Z,2.63
2022-10-28T20:59:08.538Z,2.33
2022-10-28T21:01:44.018Z,2.70
2022-10-28T21:04:12.995Z,2.88
2022-10-28T21:06:41.418Z,2.55
2022-10-28T21:09:10.066Z,3.00
2022-10-28T21:11:37.992Z,2.50
2022-10-28T21:14:05.928Z,2.40
2022-10-28T21:16:34.239Z,2.63
2022-10-28T21:19:03.855Z,2.60
2022-10-28T21:21:32.350Z,2.80
2022-10-28T21:24:00.405Z,2.33
2022-10-28T21:26:28.313Z,2.25
2022-10-28T21:28:56.349Z,2.45
2022-10-28T21:31:24.762Z,2.45
2022-10-28T21:33:52.994Z,2.10
2022-10-28T21:36:23.010Z,2.17
2022-10-28T21:38:54.188Z,2.20
2022-10-28T21:41:23.115Z,2.28
2022-10-28T21:43:52.556Z,2.70
2022-10-28T21:46:21.716Z,2.53
2022-10-28T21:48:49.810Z,2.22
2022-10-28T21:51:18.425Z,2.13
2022-10-28T21:53:47.910Z,2.25
2022-10-28T21:56:19.162Z,1.88
2022-10-28T21:58:48.547Z,2.40
2022-10-28T22:01:18.140Z,2.80
2022-10-28T22:03:46.146Z,2.88
2022-10-28T22:06:14.454Z,2.10
2022-10-28T22:08:42.641Z,2.50
2022-10-28T22:11:14.652Z,2.15
2022-10-28T22:13:42.971Z,2.35
2022-10-28T22:16:13.207Z,2.60
2022-10-28T22:18:41.387Z,1.98
2022-10-28T22:21:11.724Z,2.40
2022-10-28T22:23:39.918Z,2.17
2022-10-28T22:26:09.680Z,2.33
2022-10-28T22:28:39.513Z,2.22
2022-10-28T22:31:09.173Z,2.15
2022-10-28T22:33:37.796Z,2.47
2022-10-28T22:36:08.019Z,2.50
2022-10-28T22:38:36.221Z,2.20
2022-10-28T22:41:07.240Z,2.30
2022-10-28T22:43:35.580Z,2.30
2022-10-28T22:46:05.309Z,2.10
2022-10-28T22:48:33.869Z,2.05
2022-10-28T22:51:02.032Z,2.38
2022-10-28T22:53:29.981Z,2.13
2022-10-28T22:55:58.531Z,2.53
2022-10-28T22:58:27.968Z,2.22
2022-10-28T23:01:06.394Z,2.42
2022-10-28T23:03:38.951Z,2.33
2022-10-28T23:06:07.565Z,2.20
2022-10-28T23:08:38.074Z,2.40
2022-10-28T23:11:06.970Z,2.58
2022-10-28T23:13:35.205Z,2.30
2022-10-28T23:16:08.921Z,1.95
2022-10-28T23:18:37.296Z,2.42
2022-10-28T23:21:07.184Z,2.30
2022-10-28T23:23:35.222Z,1.98
2022-10-28T23:26:03.267Z,2.42
2022-10-28T23:28:31.694Z,2.30
2022-10-28T23:31:03.063Z,2.25
2022-10-28T23:33:33.368Z,2.28
2022-10-28T23:36:03.584Z,2.08
2022-10-28T23:38:31.730Z,2.25
2022-10-28T23:41:01.168Z,2.22
2022-10-28T23:43:30.164Z,2.65
2022-10-28T23:45:59.445Z,2.40
2022-10-28T23:48:28.683Z,2.17
2022-10-28T23:50:58.512Z,2.22
2022-10-28T23:53:26.510Z,2.20
2022-10-28T23:55:54.635Z,2.40
2022-10-28T23:58:23.541Z,1.88
